Time;durP1;ratioP1;P1;durP2;ratioP2;P2;SDS_P1;SDS_P2;PMS_P1;PMS_P2;Temp;Humidity;BMP_temperature;BMP_pressure;BME280_temperature;BME280_humidity;BME280_pressure;Samples;Min_cycle;Max_cycle;Signal;HPM_P1;HPM_P2
2021/07/04 00:02:04;;;;;;;;;9.75;7.25;;;;;20.55;74.24;100952.56;4936036;28;45477;-88
2021/07/04 00:04:29;;;;;;;;;12.50;9.00;;;;;20.52;74.60;100945.69;4944851;28;45392;-87
2021/07/04 00:06:55;;;;;;;;;13.25;9.00;;;;;20.49;74.59;100943.25;4937167;28;46272;-87
2021/07/04 00:09:20;;;;;;;;;10.75;9.00;;;;;20.46;74.66;100942.59;4939162;28;45278;-87
2021/07/04 00:11:46;;;;;;;;;11.75;8.00;;;;;20.44;75.05;100941.88;4939312;28;45430;-86
2021/07/04 00:14:12;;;;;;;;;13.00;11.00;;;;;20.41;74.93;100942.13;4939928;28;45565;-87
2021/07/04 00:16:38;;;;;;;;;16.00;12.00;;;;;20.39;74.66;100944.94;4941127;28;45395;-87
2021/07/04 00:19:03;;;;;;;;;17.25;13.00;;;;;20.37;75.04;100941.53;4940098;28;45484;-87
2021/07/04 00:21:29;;;;;;;;;12.50;10.50;;;;;20.33;75.22;100934.75;4941402;28;45362;-87
2021/07/04 00:23:54;;;;;;;;;9.50;9.50;;;;;20.33;75.30;100937.41;4941756;28;48130;-86
2021/07/04 00:26:20;;;;;;;;;13.75;9.75;;;;;20.33;75.07;100934.75;4941826;28;45625;-87
2021/07/04 00:28:45;;;;;;;;;13.75;12.00;;;;;20.32;75.57;100930.38;4939262;28;45598;-86
2021/07/04 00:31:11;;;;;;;;;11.75;9.50;;;;;20.29;75.38;100926.13;4939470;28;45314;-87
2021/07/04 00:33:36;;;;;;;;;11.50;9.25;;;;;20.28;75.64;100934.28;4942977;28;45515;-87
2021/07/04 00:36:04;;;;;;;;;9.00;9.00;;;;;20.24;75.60;100917.66;4940029;28;45630;-87
2021/07/04 00:38:29;;;;;;;;;15.00;13.50;;;;;20.22;75.98;100908.09;4941502;28;45424;-87
2021/07/04 00:40:55;;;;;;;;;10.00;10.00;;;;;20.20;75.79;100912.69;4941893;28;45640;-85
2021/07/04 00:43:20;;;;;;;;;10.25;8.75;;;;;20.20;76.19;100916.22;4942735;28;45290;-87
2021/07/04 00:45:46;;;;;;;;;12.75;8.75;;;;;20.21;76.27;100906.41;4941121;28;45495;-87
2021/07/04 00:48:13;;;;;;;;;16.50;13.75;;;;;20.20;75.86;100908.22;4940005;28;45342;-82
2021/07/04 00:50:39;;;;;;;;;10.75;8.25;;;;;20.20;76.36;100910.00;4938688;28;45523;-87
2021/07/04 00:53:04;;;;;;;;;9.50;9.50;;;;;20.22;76.21;100910.75;4940165;28;45322;-87
2021/07/04 00:55:30;;;;;;;;;8.00;8.00;;;;;20.20;76.60;100908.22;4941881;28;45429;-81
2021/07/04 00:57:56;;;;;;;;;10.75;10.00;;;;;20.18;76.07;100914.63;4938253;28;46658;-87
2021/07/04 01:00:30;;;;;;;;;14.00;10.25;;;;;20.16;76.30;100903.25;4939132;28;45496;-87
2021/07/04 01:02:56;;;;;;;;;16.75;11.25;;;;;20.14;76.40;100905.16;4939128;28;45546;-87
2021/07/04 01:05:27;;;;;;;;;11.00;10.00;;;;;20.13;76.32;100909.66;4941639;28;48051;-87
2021/07/04 01:07:53;;;;;;;;;14.75;11.50;;;;;20.12;76.75;100907.13;4936852;28;45698;-87
2021/07/04 01:10:21;;;;;;;;;13.75;12.25;;;;;20.10;76.48;100904.59;4937757;28;45559;-87
2021/07/04 01:12:48;;;;;;;;;9.75;8.75;;;;;20.07;76.51;100895.00;4936889;28;45479;-86
2021/07/04 01:15:19;;;;;;;;;9.25;7.75;;;;;20.06;76.53;100892.47;4935715;28;46099;-87
2021/07/04 01:17:46;;;;;;;;;11.50;10.50;;;;;20.01;76.33;100889.31;4936133;28;45334;-88
2021/07/04 01:20:14;;;;;;;;;10.50;7.50;;;;;19.98;76.50;100886.88;4935341;28;45428;-90
2021/07/04 01:22:40;;;;;;;;;11.00;9.25;;;;;19.94;75.99;100896.97;4934882;28;45506;-86
2021/07/04 01:25:08;;;;;;;;;8.25;8.25;;;;;19.93;76.01;100903.25;4935506;28;45446;-85
2021/07/04 01:27:35;;;;;;;;;14.00;10.25;;;;;19.90;75.91;100887.50;4935850;28;45392;-84
2021/07/04 01:30:01;;;;;;;;;10.50;7.00;;;;;19.86;76.04;100888.72;4935277;28;45534;-87
2021/07/04 01:32:26;;;;;;;;;9.50;9.00;;;;;19.85;76.51;100892.34;4935331;28;45356;-87
2021/07/04 01:34:51;;;;;;;;;9.75;9.75;;;;;19.81;76.07;100890.91;4936365;28;46081;-86
2021/07/04 01:37:17;;;;;;;;;9.00;7.00;;;;;19.75;76.03;100888.72;4935558;28;45427;-86
2021/07/04 01:39:43;;;;;;;;;9.75;8.00;;;;;19.71;76.44;100892.59;4935408;28;45352;-87
2021/07/04 01:42:08;;;;;;;;;7.50;7.50;;;;;19.69;76.36;100883.88;4935704;28;45449;-87
2021/07/04 01:44:33;;;;;;;;;11.50;9.00;;;;;19.64;76.07;100886.91;4934863;28;45521;-77
2021/07/04 01:46:59;;;;;;;;;11.75;8.50;;;;;19.64;76.31;100889.56;4934431;28;45500;-85
2021/07/04 01:49:24;;;;;;;;;7.25;6.25;;;;;19.61;76.76;100884.47;4935640;28;45474;-86
2021/07/04 01:51:52;;;;;;;;;8.00;6.25;;;;;19.59;76.68;100883.75;4934323;28;45461;-87
2021/07/04 01:54:17;;;;;;;;;7.75;7.00;;;;;19.58;76.56;100887.34;4933984;28;45519;-87
2021/07/04 01:56:42;;;;;;;;;9.75;7.50;;;;;19.56;76.48;100876.78;4935940;28;45485;-87
2021/07/04 01:59:08;;;;;;;;;9.75;8.50;;;;;19.56;76.45;100871.44;4934198;28;45573;-87
2021/07/04 02:01:33;;;;;;;;;7.75;7.75;;;;;19.55;76.54;100875.09;4935054;28;45341;-87
2021/07/04 02:03:58;;;;;;;;;9.75;8.75;;;;;19.51;76.67;100870.97;4935307;28;50298;-85
2021/07/04 02:06:24;;;;;;;;;11.00;9.25;;;;;19.54;76.66;100870.75;4935962;28;45532;-87
2021/07/04 02:08:49;;;;;;;;;11.50;8.50;;;;;19.52;76.74;100878.03;4933961;28;45542;-86
2021/07/04 02:11:14;;;;;;;;;7.00;7.00;;;;;19.48;76.87;100876.56;4934400;28;45346;-86
2021/07/04 02:13:40;;;;;;;;;10.75;8.25;;;;;19.47;76.88;100872.19;4935718;28;45364;-88
2021/07/04 02:16:06;;;;;;;;;7.25;5.75;;;;;19.46;77.25;100867.81;4929101;28;45732;-87
2021/07/04 02:18:32;;;;;;;;;12.00;8.50;;;;;19.45;76.66;100875.94;4935415;28;46504;-87
2021/07/04 02:20:57;;;;;;;;;11.50;10.25;;;;;19.45;77.08;100881.25;4934786;28;45609;-81
2021/07/04 02:23:31;;;;;;;;;8.25;8.25;;;;;19.44;76.51;100882.25;4934442;28;47331;-87
2021/07/04 02:25:58;;;;;;;;;9.25;7.50;;;;;19.43;77.37;100880.53;4935695;28;45318;-87
2021/07/04 02:28:26;;;;;;;;;8.75;8.75;;;;;19.43;77.32;100873.41;4938216;28;45424;-87
2021/07/04 02:30:54;;;;;;;;;9.75;9.00;;;;;19.44;76.71;100875.09;4937382;28;45466;-84
2021/07/04 02:33:21;;;;;;;;;6.50;6.50;;;;;19.48;77.38;100873.88;4937998;28;46059;-87
2021/07/04 02:35:51;;;;;;;;;9.00;6.75;;;;;19.50;76.96;100879.94;4938000;28;45337;-87
2021/07/04 02:38:18;;;;;;;;;7.00;7.00;;;;;19.51;76.72;100870.97;4938370;28;45433;-85
2021/07/04 02:40:44;;;;;;;;;8.75;7.75;;;;;19.55;76.59;100872.44;4953512;28;45555;-83
2021/07/04 02:43:12;;;;;;;;;11.00;9.00;;;;;19.56;76.79;100859.94;4937670;28;45486;-86
2021/07/04 02:45:38;;;;;;;;;10.75;9.25;;;;;19.57;76.50;100864.31;4936621;28;45487;-87
2021/07/04 02:48:04;;;;;;;;;8.00;7.00;;;;;19.56;76.92;100863.47;4938242;28;45418;-87
2021/07/04 02:50:29;;;;;;;;;10.00;8.00;;;;;19.54;76.56;100864.56;4936503;28;45319;-87
2021/07/04 02:52:55;;;;;;;;;7.50;6.50;;;;;19.55;76.77;100867.09;4938535;28;45460;-87
2021/07/04 02:55:21;;;;;;;;;8.50;7.00;;;;;19.54;76.57;100870.75;4937653;28;46426;-88
2021/07/04 02:57:48;;;;;;;;;8.75;6.00;;;;;19.54;76.78;100864.56;4937581;28;45439;-86
2021/07/04 03:00:16;;;;;;;;;9.50;7.00;;;;;19.53;77.12;100860.19;4935788;28;45587;-88
2021/07/04 03:02:41;;;;;;;;;11.75;9.50;;;;;19.56;76.82;100863.47;4937008;28;45563;-85
2021/07/04 03:05:08;;;;;;;;;10.50;10.00;;;;;19.58;76.77;100866.03;4937392;28;47240;-87
2021/07/04 03:07:35;;;;;;;;;10.25;9.75;;;;;19.57;77.21;100856.31;4937815;28;45522;-87
2021/07/04 03:10:00;;;;;;;;;8.25;7.25;;;;;19.56;76.83;100854.63;4936041;28;45551;-87
2021/07/04 03:12:26;;;;;;;;;10.25;8.50;;;;;19.56;77.14;100859.94;4937665;28;45517;-88
2021/07/04 03:14:52;;;;;;;;;8.00;7.25;;;;;19.55;76.80;100850.25;4936528;28;45468;-86
2021/07/04 03:17:17;;;;;;;;;7.75;5.75;;;;;19.56;76.96;100842.13;4936670;28;45515;-86
2021/07/04 03:19:42;;;;;;;;;11.75;7.75;;;;;19.60;76.97;100852.59;4937668;28;45408;-87
2021/07/04 03:22:08;;;;;;;;;7.75;5.50;;;;;19.58;77.14;100851.84;4937168;28;45946;-87
2021/07/04 03:24:33;;;;;;;;;7.00;7.00;;;;;19.59;76.75;100845.53;4937003;28;45285;-88
2021/07/04 03:26:59;;;;;;;;;12.50;8.75;;;;;19.62;77.24;100847.97;4937393;28;45278;-85
2021/07/04 03:29:24;;;;;;;;;7.00;6.00;;;;;19.63;76.33;100849.66;4937444;28;45318;-86
2021/07/04 03:31:50;;;;;;;;;8.25;7.25;;;;;19.63;77.24;100847.88;4935978;28;45566;-87
2021/07/04 03:34:16;;;;;;;;;8.25;8.00;;;;;19.63;76.82;100831.88;4952390;28;45649;-87
2021/07/04 03:36:41;;;;;;;;;7.75;6.75;;;;;19.63;76.57;100831.88;4937530;28;45491;-87
2021/07/04 03:39:07;;;;;;;;;9.00;8.75;;;;;19.65;78.47;100839.75;4936698;28;45629;-88
2021/07/04 03:41:32;;;;;;;;;7.00;7.00;;;;;19.65;78.91;100843.25;4936828;28;45927;-88
2021/07/04 03:44:00;;;;;;;;;8.00;8.00;;;;;19.60;84.27;100837.44;4936542;28;45381;-84
2021/07/04 03:46:27;;;;;;;;;7.25;7.25;;;;;19.55;81.88;100828.94;4938139;28;46319;-84
2021/07/04 03:48:52;;;;;;;;;6.75;5.75;;;;;19.45;79.72;100820.81;4936685;28;45847;-86
2021/07/04 03:51:18;;;;;;;;;6.75;6.25;;;;;19.48;80.43;100836.56;4936387;28;45506;-87
2021/07/04 03:53:43;;;;;;;;;8.50;7.00;;;;;19.49;79.88;100829.41;4937235;28;45486;-86
2021/07/04 03:56:08;;;;;;;;;7.00;6.00;;;;;19.50;79.99;100826.63;4937581;28;45398;-85
2021/07/04 03:58:34;;;;;;;;;11.00;8.75;;;;;19.50;79.68;100818.63;4950975;28;45653;-85
2021/07/04 04:00:59;;;;;;;;;9.50;5.00;;;;;19.50;80.01;100829.28;4934689;28;47049;-85
2021/07/04 04:03:24;;;;;;;;;8.75;8.75;;;;;19.52;80.27;100830.03;4937040;28;45544;-87
2021/07/04 04:05:50;;;;;;;;;7.25;6.75;;;;;19.52;79.85;100827.38;4937470;28;45459;-86
2021/07/04 04:08:15;;;;;;;;;7.75;7.00;;;;;19.51;80.10;100830.97;4936459;28;45602;-86
2021/07/04 04:10:40;;;;;;;;;6.75;6.00;;;;;19.50;80.50;100836.44;4936794;28;45391;-88
2021/07/04 04:13:06;;;;;;;;;5.00;5.00;;;;;19.44;80.19;100843.09;4936424;28;45368;-87
2021/07/04 04:15:31;;;;;;;;;6.50;6.25;;;;;19.39;80.93;100845.28;4936483;28;45554;-86
2021/07/04 04:17:58;;;;;;;;;5.00;5.00;;;;;19.36;79.70;100845.50;4937329;28;45567;-87
2021/07/04 04:20:23;;;;;;;;;4.75;4.75;;;;;19.30;81.50;100849.50;4931776;28;46237;-85
2021/07/04 04:22:49;;;;;;;;;5.00;5.00;;;;;19.22;82.76;100859.06;4937456;28;45453;-86
2021/07/04 04:25:14;;;;;;;;;5.00;4.75;;;;;19.15;83.20;100868.50;4936441;28;45264;-86
2021/07/04 04:27:39;;;;;;;;;6.75;6.75;;;;;19.16;82.05;100878.16;4935653;28;45524;-87
2021/07/04 04:30:07;;;;;;;;;5.00;5.00;;;;;19.14;84.41;100880.13;4937633;28;45404;-88
2021/07/04 04:32:33;;;;;;;;;3.50;3.50;;;;;19.18;82.46;100877.09;4942590;28;45745;-89
2021/07/04 04:34:58;;;;;;;;;6.00;4.00;;;;;19.18;83.81;100869.09;4944262;28;45349;-87
2021/07/04 04:37:23;;;;;;;;;6.75;5.25;;;;;19.13;82.95;100849.13;4943850;28;45388;-87
2021/07/04 04:39:49;;;;;;;;;5.50;4.50;;;;;19.08;85.91;100851.28;4942088;28;45432;-87
2021/07/04 04:42:14;;;;;;;;;7.50;4.25;;;;;19.00;85.80;100842.09;4942653;28;45503;-88
2021/07/04 04:44:40;;;;;;;;;6.00;5.25;;;;;18.94;84.94;100844.34;4942426;28;45318;-87
2021/07/04 04:47:06;;;;;;;;;3.00;3.00;;;;;18.93;84.83;100832.84;4940821;28;45416;-87
2021/07/04 04:49:34;;;;;;;;;4.75;4.25;;;;;18.95;83.20;100811.41;4941645;28;45508;-84
2021/07/04 04:52:00;;;;;;;;;5.75;4.25;;;;;18.95;83.73;100809.63;4941085;28;45720;-86
2021/07/04 04:54:25;;;;;;;;;5.25;5.00;;;;;18.97;83.78;100807.69;4939326;28;45447;-87
2021/07/04 04:56:51;;;;;;;;;4.25;4.25;;;;;18.99;84.01;100800.41;4940511;28;45562;-87
2021/07/04 04:59:16;;;;;;;;;4.25;3.00;;;;;19.01;83.84;100802.97;4940541;28;45938;-87
2021/07/04 05:01:42;;;;;;;;;6.50;5.00;;;;;19.04;83.69;100802.72;4955475;28;45380;-87
2021/07/04 05:04:09;;;;;;;;;4.25;3.75;;;;;19.07;83.56;100812.31;4941180;28;45495;-87
2021/07/04 05:06:34;;;;;;;;;7.00;5.50;;;;;19.10;83.43;100818.22;4940669;28;45492;-86
2021/07/04 05:09:00;;;;;;;;;8.00;5.75;;;;;19.12;83.04;100813.66;4937205;28;45920;-86
2021/07/04 05:11:25;;;;;;;;;5.75;4.25;;;;;19.15;83.33;100817.88;4935679;28;45347;-87
2021/07/04 05:13:50;;;;;;;;;6.25;5.00;;;;;19.15;83.30;100813.38;4935578;28;45460;-87
2021/07/04 05:16:17;;;;;;;;;4.00;4.00;;;;;19.21;nan;100822.72;4937716;28;45421;-85
2021/07/04 05:18:42;;;;;;;;;7.00;5.00;;;;;19.24;82.56;100830.50;4939014;28;45624;-86
2021/07/04 05:21:07;;;;;;;;;5.50;4.50;;;;;19.26;82.27;100839.19;4939901;28;45529;-87
2021/07/04 05:23:33;;;;;;;;;4.25;3.50;;;;;19.29;82.05;100841.63;4940142;28;45478;-80
2021/07/04 05:25:58;;;;;;;;;6.75;4.25;;;;;19.31;82.03;100842.34;4940297;28;45388;-88
2021/07/04 05:28:28;;;;;;;;;4.00;4.00;;;;;19.34;81.93;100842.13;4938425;28;45915;-88
2021/07/04 05:30:55;;;;;;;;;3.00;2.50;;;;;19.37;81.86;100847.22;4941980;28;45454;-87
2021/07/04 05:33:20;;;;;;;;;3.25;2.25;;;;;19.37;81.37;100847.22;4943307;28;45274;-87
2021/07/04 05:35:46;;;;;;;;;4.00;3.00;;;;;19.39;81.42;100845.28;4943302;28;45502;-87
2021/07/04 05:38:22;;;;;;;;;5.00;3.75;;;;;19.42;81.70;100846.84;4942524;28;47535;-83
2021/07/04 05:40:51;;;;;;;;;2.75;2.50;;;;;19.47;81.63;100847.34;4942961;28;45691;-82
2021/07/04 05:43:17;;;;;;;;;9.00;5.75;;;;;19.49;81.70;100845.41;4944089;28;45403;-87
2021/07/04 05:45:43;;;;;;;;;3.75;1.50;;;;;19.49;81.73;100835.59;4942134;28;45535;-85
2021/07/04 05:48:09;;;;;;;;;5.50;4.75;;;;;19.49;81.70;100834.75;4943001;28;45427;-87
2021/07/04 05:50:34;;;;;;;;;5.75;4.25;;;;;19.51;81.29;100830.97;4943700;28;45467;-87
2021/07/04 05:53:00;;;;;;;;;4.75;4.00;;;;;19.58;82.29;100830.53;4943707;28;45780;-83
2021/07/04 05:55:25;;;;;;;;;4.50;4.50;;;;;19.63;81.46;100826.56;4944543;28;45278;-86
2021/07/04 05:57:50;;;;;;;;;5.50;5.50;;;;;19.68;81.77;100823.50;4942934;28;45836;-86
2021/07/04 06:00:16;;;;;;;;;3.75;3.75;;;;;19.75;81.78;100828.22;4944781;28;45583;-87
2021/07/04 06:02:42;;;;;;;;;7.75;4.75;;;;;19.80;81.39;100828.72;4947016;28;45373;-89
2021/07/04 06:05:08;;;;;;;;;9.50;6.75;;;;;19.83;81.03;100827.59;4946749;28;45273;-86
2021/07/04 06:07:34;;;;;;;;;7.50;7.50;;;;;19.87;80.88;100829.06;4946717;28;45983;-87
2021/07/04 06:10:00;;;;;;;;;8.00;7.00;;;;;19.92;81.00;100828.69;4945364;28;45846;-88
2021/07/04 06:12:25;;;;;;;;;7.50;6.50;;;;;19.94;80.58;100824.06;4946461;28;45374;-88
2021/07/04 06:14:50;;;;;;;;;5.50;4.75;;;;;19.97;80.06;100830.00;4942729;28;45381;-87
2021/07/04 06:17:16;;;;;;;;;8.75;6.75;;;;;19.95;79.93;100826.63;4943757;28;45331;-89
2021/07/04 06:19:41;;;;;;;;;6.00;5.00;;;;;19.94;80.30;100832.06;4939152;28;45350;-89
2021/07/04 06:22:06;;;;;;;;;6.75;4.75;;;;;19.93;79.60;100825.91;4938078;28;50691;-88
2021/07/04 06:24:32;;;;;;;;;7.25;6.50;;;;;19.90;79.92;100828.81;4938014;28;45443;-88
2021/07/04 06:26:57;;;;;;;;;6.75;3.50;;;;;19.90;80.11;100834.16;4939238;28;46110;-85
2021/07/04 06:29:22;;;;;;;;;5.50;5.50;;;;;19.90;79.95;100835.97;4937439;28;45451;-87
2021/07/04 06:31:48;;;;;;;;;5.00;3.50;;;;;19.95;79.96;100833.78;4939750;28;45281;-89
2021/07/04 06:34:13;;;;;;;;;6.25;6.25;;;;;20.11;80.45;100830.72;4937264;28;45441;-87
2021/07/04 06:36:38;;;;;;;;;6.75;6.50;;;;;20.27;80.18;100833.84;4937880;28;45369;-84
2021/07/04 06:39:04;;;;;;;;;6.75;5.50;;;;;20.43;78.60;100834.25;4937376;28;45424;-90
2021/07/04 06:41:30;;;;;;;;;6.50;5.50;;;;;20.57;79.10;100828.66;4932463;28;46524;-81
2021/07/04 06:43:55;;;;;;;;;8.25;5.50;;;;;20.72;78.96;100823.84;4939201;28;45645;-85
2021/07/04 06:46:20;;;;;;;;;5.25;5.25;;;;;20.89;78.81;100818.91;4938240;28;45334;-89
2021/07/04 06:48:46;;;;;;;;;4.00;4.00;;;;;21.02;76.99;100820.41;4934984;28;47584;-88
2021/07/04 06:51:11;;;;;;;;;5.50;5.50;;;;;21.01;76.27;100816.03;4937477;28;45567;-89
2021/07/04 06:53:36;;;;;;;;;5.25;4.00;;;;;21.00;76.73;100814.34;4936681;28;45522;-89
2021/07/04 06:56:03;;;;;;;;;5.50;4.50;;;;;21.01;76.55;100820.53;4938426;28;46068;-85
2021/07/04 06:58:29;;;;;;;;;4.25;4.25;;;;;21.05;77.32;100813.97;4937345;28;45843;-89
2021/07/04 07:00:54;;;;;;;;;7.75;5.75;;;;;21.14;77.37;100815.81;4938062;28;45454;-86
2021/07/04 07:03:19;;;;;;;;;6.50;5.25;;;;;21.22;77.00;100813.34;4941201;28;45694;-88
2021/07/04 07:05:45;;;;;;;;;5.50;5.00;;;;;21.31;77.13;100811.75;4937992;28;45478;-86
2021/07/04 07:08:10;;;;;;;;;5.00;3.75;;;;;21.43;76.39;100828.53;4937578;28;45548;-82
2021/07/04 07:10:36;;;;;;;;;3.00;3.00;;;;;21.52;76.47;100814.38;4937998;28;45394;-84
2021/07/04 07:13:05;;;;;;;;;4.25;3.50;;;;;21.67;76.08;100822.88;4937263;28;45523;-83
2021/07/04 07:15:30;;;;;;;;;7.50;4.50;;;;;21.88;75.11;100820.97;4936322;28;45508;-86
2021/07/04 07:17:56;;;;;;;;;5.00;3.50;;;;;22.11;74.48;100825.13;4937993;28;45553;-85
2021/07/04 07:20:21;;;;;;;;;4.25;4.00;;;;;22.47;75.14;100824.59;4937651;28;45404;-87
2021/07/04 07:22:47;;;;;;;;;3.25;3.25;;;;;22.85;73.37;100823.72;4950913;28;45354;-85
2021/07/04 07:25:13;;;;;;;;;4.00;3.25;;;;;22.91;72.12;100823.19;4939004;28;46124;-87
2021/07/04 07:27:38;;;;;;;;;5.50;3.00;;;;;22.74;71.40;100821.22;4941437;28;45699;-86
2021/07/04 07:30:07;;;;;;;;;4.75;4.75;;;;;22.55;71.94;100822.94;4937611;28;45464;-85
2021/07/04 07:32:33;;;;;;;;;3.75;3.75;;;;;22.47;72.22;100829.97;4938245;28;45481;-85
2021/07/04 07:34:58;;;;;;;;;3.00;3.00;;;;;22.30;71.55;100832.34;4937596;28;45381;-83
2021/07/04 07:37:24;;;;;;;;;3.50;3.50;;;;;22.21;72.52;100829.66;4936489;28;45495;-85
2021/07/04 07:39:51;;;;;;;;;7.25;4.00;;;;;22.27;72.30;100837.13;4937491;28;45503;-85
2021/07/04 07:42:16;;;;;;;;;3.50;3.00;;;;;22.38;71.87;100847.72;4937287;28;45366;-83
2021/07/04 07:44:42;;;;;;;;;4.00;4.00;;;;;22.31;72.34;100847.44;4936971;28;46181;-85
2021/07/04 07:47:08;;;;;;;;;4.00;4.00;;;;;22.17;71.57;100845.13;4938216;28;45337;-86
2021/07/04 07:49:33;;;;;;;;;228.75;187.75;;;;;21.96;72.22;100844.34;4951578;28;45728;-84
2021/07/04 07:51:59;;;;;;;;;4.00;4.00;;;;;21.82;72.05;100845.56;4936517;28;45426;-83
2021/07/04 07:54:25;;;;;;;;;5.75;3.50;;;;;21.63;72.47;100839.19;4936617;28;45344;-84
2021/07/04 07:56:51;;;;;;;;;4.75;4.00;;;;;21.64;73.23;100848.06;4936332;28;45374;-84
2021/07/04 07:59:17;;;;;;;;;3.25;3.25;;;;;21.71;73.08;100845.69;4936260;28;46119;-81
2021/07/04 08:01:42;;;;;;;;;5.00;3.75;;;;;21.74;72.29;100848.94;4937902;28;45311;-83
2021/07/04 08:04:08;;;;;;;;;3.25;3.25;;;;;21.63;72.57;100849.03;4935818;28;45446;-79
2021/07/04 08:06:33;;;;;;;;;6.00;5.50;;;;;21.48;72.78;100851.22;4936166;28;45306;-80
2021/07/04 08:08:58;;;;;;;;;4.00;4.00;;;;;21.43;72.64;100858.78;4936252;28;45463;-83
2021/07/04 08:11:24;;;;;;;;;3.75;3.75;;;;;21.49;72.51;100852.06;4936680;28;45333;-84
2021/07/04 08:13:50;;;;;;;;;4.00;4.00;;;;;21.85;73.48;100847.97;4938108;28;46075;-81
2021/07/04 08:16:16;;;;;;;;;6.00;3.00;;;;;22.50;72.96;100841.25;4936177;28;45230;-83
2021/07/04 08:18:42;;;;;;;;;3.50;3.00;;;;;23.02;70.67;100843.63;4935573;28;45515;-86
2021/07/04 08:21:08;;;;;;;;;3.25;3.25;;;;;23.24;70.92;100853.19;4934938;28;45385;-85
2021/07/04 08:23:33;;;;;;;;;3.00;3.00;;;;;23.66;70.16;100833.03;4934119;28;46796;-86
2021/07/04 08:25:58;;;;;;;;;4.50;3.25;;;;;26.06;69.79;100817.66;4937505;28;45521;-85
2021/07/04 08:28:24;;;;;;;;;3.00;3.00;;;;;28.08;64.10;100799.50;4935807;28;45591;-85
2021/07/04 08:30:49;;;;;;;;;4.75;4.75;;;;;29.09;61.94;100802.97;4935370;28;45470;-88
2021/07/04 08:33:15;;;;;;;;;4.25;3.00;;;;;29.94;59.92;100785.38;4935561;28;45677;-82
2021/07/04 08:35:40;;;;;;;;;2.00;2.00;;;;;32.61;58.14;100784.97;4935426;28;47161;-84
2021/07/04 08:38:06;;;;;;;;;2.00;2.00;;;;;35.43;53.96;100784.69;4936675;28;45522;-79
2021/07/04 08:40:31;;;;;;;;;3.00;3.00;;;;;38.88;48.80;100792.84;4937237;28;45408;-81
2021/07/04 08:42:57;;;;;;;;;4.25;1.75;;;;;42.11;42.02;100795.38;4935276;28;45335;-84
2021/07/04 08:45:22;;;;;;;;;1.00;1.00;;;;;44.44;38.59;100810.75;4935809;28;45413;-81
2021/07/04 08:47:47;;;;;;;;;1.00;1.00;;;;;44.26;34.98;100809.50;4935738;28;45493;-80
2021/07/04 08:50:13;;;;;;;;;1.00;1.00;;;;;44.30;37.75;100816.13;4935457;28;45248;-83
2021/07/04 08:52:39;;;;;;;;;0.00;0.00;;;;;45.05;34.32;100818.50;4948733;28;46179;-83
2021/07/04 08:55:07;;;;;;;;;1.00;1.00;;;;;46.12;33.07;100822.69;4936620;28;45608;-79
2021/07/04 08:57:32;;;;;;;;;0.00;0.00;;;;;48.23;30.58;100824.72;4935621;28;45407;-82
2021/07/04 08:59:58;;;;;;;;;0.00;0.00;;;;;50.23;28.28;100829.13;4934256;28;45480;-85
2021/07/04 09:02:37;;;;;;;;;0.00;0.00;;;;;51.61;24.33;100833.41;4934953;28;46126;-79
2021/07/04 09:05:06;;;;;;;;;0.50;0.50;;;;;51.59;23.77;100837.72;4933681;28;45431;-79
2021/07/04 09:07:33;;;;;;;;;0.00;0.00;;;;;51.93;23.50;100848.69;4936381;28;45463;-79
2021/07/04 09:10:00;;;;;;;;;1.00;0.00;;;;;53.22;22.45;100844.06;4935345;28;45529;-82
2021/07/04 09:12:41;;;;;;;;;0.00;0.00;;;;;54.09;21.67;100838.75;4933277;28;46128;-79
2021/07/04 09:15:09;;;;;;;;;0.00;0.00;;;;;54.62;21.38;100841.44;4925356;28;45676;-81
2021/07/04 09:17:36;;;;;;;;;1.50;0.00;;;;;54.78;20.14;100847.94;4935289;28;45591;-79
2021/07/04 09:20:05;;;;;;;;;0.00;0.00;;;;;54.49;19.60;100848.31;4936903;28;45474;-85
2021/07/04 09:22:36;;;;;;;;;0.00;0.00;;;;;54.04;19.81;100840.97;4935982;28;46413;-82
2021/07/04 09:25:22;;;;;;;;;0.00;0.00;;;;;53.21;19.51;100842.44;4933593;28;45602;-83
2021/07/04 09:28:11;;;;;;;;;0.00;0.00;;;;;51.80;19.93;100824.53;4934235;28;45531;-87
2021/07/04 09:30:42;;;;;;;;;0.00;0.00;;;;;50.54;20.52;100828.94;4935249;28;45665;-82
2021/07/04 09:33:18;;;;;;;;;0.00;0.00;;;;;49.40;21.36;100819.94;4935204;28;45529;-86
2021/07/04 09:36:05;;;;;;;;;0.00;0.00;;;;;48.58;22.44;100823.00;4935767;28;45464;-78
2021/07/04 09:38:33;;;;;;;;;0.00;0.00;;;;;47.67;21.06;100809.31;4920401;28;45329;-79
2021/07/04 09:40:59;;;;;;;;;0.00;0.00;;;;;46.44;23.12;100812.75;4937307;28;45539;-82
2021/07/04 09:43:28;;;;;;;;;0.00;0.00;;;;;45.65;24.07;100805.03;4939538;28;46211;-84
2021/07/04 09:45:56;;;;;;;;;0.00;0.00;;;;;44.00;24.19;100808.84;4938527;28;45511;-84
2021/07/04 09:48:28;;;;;;;;;0.00;0.00;;;;;42.23;25.68;100803.44;4935898;28;45510;-85
2021/07/04 09:50:54;;;;;;;;;0.00;0.00;;;;;40.52;26.59;100797.63;4938255;28;45552;-80
2021/07/04 09:53:22;;;;;;;;;0.00;0.00;;;;;38.84;27.95;100799.94;4936976;28;45444;-80
2021/07/04 09:55:51;;;;;;;;;0.00;0.00;;;;;37.17;29.92;100801.09;4938190;28;45357;-82
2021/07/04 09:58:18;;;;;;;;;0.50;0.00;;;;;35.33;31.06;100811.72;4939522;28;45316;-85
2021/07/04 10:00:46;;;;;;;;;0.00;0.00;;;;;33.58;32.65;100806.00;4936140;28;45516;-83
2021/07/04 10:03:21;;;;;;;;;1.00;0.00;;;;;31.98;34.21;100819.75;4932147;28;47266;-80
2021/07/04 10:05:55;;;;;;;;;0.50;0.50;;;;;30.53;36.56;100820.41;4924547;28;45636;-90
2021/07/04 10:08:22;;;;;;;;;2.25;0.50;;;;;29.62;38.85;100809.16;4935217;28;45401;-81
2021/07/04 10:10:48;;;;;;;;;0.75;0.75;;;;;28.70;39.58;100809.38;4937132;28;45562;-81
2021/07/04 10:13:14;;;;;;;;;0.50;0.25;;;;;28.12;41.16;100805.38;4932791;28;46462;-77
2021/07/04 10:15:41;;;;;;;;;1.00;0.75;;;;;28.04;41.94;100809.00;4934318;28;45504;-82
2021/07/04 10:18:09;;;;;;;;;0.75;0.75;;;;;28.19;42.97;100805.50;4935474;28;45464;-83
2021/07/04 10:20:35;;;;;;;;;0.50;0.00;;;;;28.33;43.26;100808.31;4938201;28;45519;-80
2021/07/04 10:23:01;;;;;;;;;2.75;2.75;;;;;28.21;43.30;100798.91;4935790;28;46402;-85
2021/07/04 10:25:26;;;;;;;;;1.00;1.00;;;;;28.26;42.94;100799.22;4921529;28;45507;-83
2021/07/04 10:27:52;;;;;;;;;2.00;2.00;;;;;28.61;43.16;100791.56;4937148;28;45432;-85
2021/07/04 10:30:17;;;;;;;;;1.50;1.50;;;;;28.97;43.33;100793.59;4935485;28;45483;-77
2021/07/04 10:33:05;;;;;;;;;2.75;2.75;;;;;29.54;43.66;100793.00;4936654;28;45791;-75
2021/07/04 10:35:30;;;;;;;;;3.00;2.00;;;;;30.02;42.40;100788.81;4935720;28;45412;-80
2021/07/04 10:38:14;;;;;;;;;1.00;1.00;;;;;30.44;42.65;100786.34;4936054;28;45475;-77
2021/07/04 10:40:40;;;;;;;;;3.50;1.00;;;;;30.57;40.88;100781.03;4941977;28;45560;-83
2021/07/04 10:43:06;;;;;;;;;1.00;1.00;;;;;30.71;40.75;100785.56;4932292;28;45405;-79
2021/07/04 10:45:37;;;;;;;;;3.00;1.00;;;;;30.75;40.33;100778.72;4936381;28;45478;-89
2021/07/04 10:48:25;;;;;;;;;2.25;1.25;;;;;30.66;40.25;100777.97;4937105;28;45472;-85
2021/07/04 10:51:10;;;;;;;;;2.00;2.00;;;;;30.42;40.54;100768.38;4931264;28;45461;-77
2021/07/04 10:53:55;;;;;;;;;2.25;2.25;;;;;30.20;41.22;100766.72;4938937;28;45471;-84
2021/07/04 10:56:40;;;;;;;;;2.00;2.00;;;;;30.02;40.31;100760.88;4938013;28;45432;-78
2021/07/04 10:59:09;;;;;;;;;0.75;0.75;;;;;29.37;42.12;100767.97;4935134;28;45494;-76
2021/07/04 11:01:57;;;;;;;;;5.00;3.75;;;;;28.74;42.14;100783.66;4957690;28;45333;-80
2021/07/04 11:04:32;;;;;;;;;3.75;2.50;;;;;28.07;43.52;100778.06;4937176;28;45419;-85
2021/07/04 11:06:59;;;;;;;;;5.50;5.50;;;;;27.44;44.39;100779.03;4939451;28;45610;-80
2021/07/04 11:09:45;;;;;;;;;4.00;3.00;;;;;26.98;45.11;100773.41;4938066;28;45393;-80
2021/07/04 11:12:37;;;;;;;;;1.25;1.25;;;;;26.69;47.65;100774.81;4935948;28;45502;-87
2021/07/04 11:15:11;;;;;;;;;1.00;1.00;;;;;26.61;48.00;100774.78;4937500;28;45960;-84
2021/07/04 11:17:55;;;;;;;;;1.50;1.50;;;;;26.62;47.88;100762.16;4937177;28;45548;-79
2021/07/04 11:20:30;;;;;;;;;2.50;2.50;;;;;26.80;48.97;100758.28;4937307;28;45599;-81
2021/07/04 11:23:05;;;;;;;;;1.00;1.00;;;;;27.34;49.00;100759.50;4937306;28;45526;-88
2021/07/04 11:25:48;;;;;;;;;2.00;2.00;;;;;28.04;47.94;100751.44;4938934;28;46374;-85